Overview Statistics Trail Chart Weather Telemetry Raw packets
 

This is the latest recevied weather packets stored in our database for station/object N5PER. If no packets are shown the sender has not sent any weather packets the latest 10 day(s).

<< 1 2 3 4 5 6 >>
Time Temp. Humidity Pressure Rain* Wind** Luminosity Snow
1788563641 32.78° C 59% 1009.5 hPa 0 mm - 171 W/m² -
1788563336 32.78° C 57% 1009.6 hPa 0 mm - 183 W/m² -
1788563034 32.78° C 57% 1009.5 hPa 0 mm - 200 W/m² -
1788562729 32.78° C 58% 1009.4 hPa 0 mm - 226 W/m² -
1788562428 32.78° C 57% 1009.6 hPa 0 mm - 247 W/m² -
1788562128 32.78° C 58% 1009.5 hPa 0 mm - 267 W/m² -
1788561823 32.78° C 58% 1009.7 hPa 0 mm - 286 W/m² -
1788561523 32.78° C 58% 1009.5 hPa 0 mm - 301 W/m² -
1788561222 32.22° C 60% 1009.6 hPa 0 mm - 314 W/m² -
1788560919 32.22° C 59% 1009.6 hPa 0 mm - 343 W/m² -
1788560619 32.22° C 60% 1009.6 hPa 0 mm - 366 W/m² -
1788560318 32.22° C 61% 1009.7 hPa 0 mm - 394 W/m² -
1788560013 32.22° C 63% 1009.6 hPa 0 mm - 427 W/m² -
1788559709 31.67° C 65% 1009.8 hPa 0 mm - 475 W/m² -
1788559408 31.67° C 65% 1010.2 hPa 0 mm - 222 W/m² -
1788559104 31.67° C 65% 1010.1 hPa 0 mm - 586 W/m² -
1788558799 33.33° C 59% 1010.1 hPa 0 mm - 211 W/m² -
1788558495 35.56° C 54% 1010 hPa 0 mm - 498 W/m² -
1788558190 36.11° C 48% 1009.8 hPa 0 mm - 696 W/m² -
1788557888 37.22° C 46% 1009.8 hPa 0 mm - 766 W/m² -
1788557584 37.22° C 46% 1009.7 hPa 0 mm - 745 W/m² -
1788557280 36.67° C 46% 1009.6 hPa 0 mm - 764 W/m² -
1788556980 36.67° C 46% 1009.9 hPa 0 mm - 756 W/m² -
1788556675 36.11° C 50% 1009.9 hPa 0 mm - 752 W/m² -
1788556369 35.56° C 51% 1010.1 hPa 0 mm - 771 W/m² -

* Rain latest hour (hover to see other rain measurements)
** Current wind speed in m/s (hover to see current wind gust speed)